sensor_id;sensor_type;location;lat;lon;timestamp;temperature;humidity
32749;DHT22;19119;52.474;13.710;2023-07-22T00:01:49;13.40;99.90
32749;DHT22;19119;52.474;13.710;2023-07-22T00:04:14;13.40;99.90
32749;DHT22;19119;52.474;13.710;2023-07-22T00:06:40;13.40;99.90
32749;DHT22;19119;52.474;13.710;2023-07-22T00:09:05;13.50;99.90
32749;DHT22;19119;52.474;13.710;2023-07-22T00:11:32;13.30;99.90
32749;DHT22;19119;52.474;13.710;2023-07-22T00:13:57;13.50;99.90
32749;DHT22;19119;52.474;13.710;2023-07-22T00:16:24;13.40;99.90
32749;DHT22;19119;52.474;13.710;2023-07-22T00:18:49;13.30;99.90
32749;DHT22;19119;52.474;13.710;2023-07-22T00:21:15;13.40;99.90
32749;DHT22;19119;52.474;13.710;2023-07-22T00:23:40;13.30;99.90
32749;DHT22;19119;52.474;13.710;2023-07-22T00:26:06;13.30;99.90
32749;DHT22;19119;52.474;13.710;2023-07-22T00:28:31;13.30;99.90
32749;DHT22;19119;52.474;13.710;2023-07-22T00:30:57;13.40;99.90
32749;DHT22;19119;52.474;13.710;2023-07-22T00:33:23;13.40;99.90
32749;DHT22;19119;52.474;13.710;2023-07-22T00:35:49;13.30;99.90
32749;DHT22;19119;52.474;13.710;2023-07-22T00:38:18;13.30;99.90
32749;DHT22;19119;52.474;13.710;2023-07-22T00:40:45;13.30;99.90
32749;DHT22;19119;52.474;13.710;2023-07-22T00:43:10;13.30;99.90
32749;DHT22;19119;52.474;13.710;2023-07-22T00:45:36;13.30;99.90
32749;DHT22;19119;52.474;13.710;2023-07-22T00:48:02;13.40;99.90
32749;DHT22;19119;52.474;13.710;2023-07-22T00:50:30;13.30;99.90
32749;DHT22;19119;52.474;13.710;2023-07-22T00:52:57;13.30;99.90
32749;DHT22;19119;52.474;13.710;2023-07-22T00:55:23;13.30;99.90
32749;DHT22;19119;52.474;13.710;2023-07-22T00:57:48;13.30;99.90
32749;DHT22;19119;52.474;13.710;2023-07-22T01:00:14;13.40;99.90
32749;DHT22;19119;52.474;13.710;2023-07-22T01:02:41;13.40;99.90
32749;DHT22;19119;52.474;13.710;2023-07-22T01:05:08;13.40;99.90
32749;DHT22;19119;52.474;13.710;2023-07-22T01:07:35;13.50;99.90
32749;DHT22;19119;52.474;13.710;2023-07-22T01:10:01;13.60;99.90
32749;DHT22;19119;52.474;13.710;2023-07-22T01:12:27;13.60;99.90
32749;DHT22;19119;52.474;13.710;2023-07-22T01:14:53;13.60;99.90
32749;DHT22;19119;52.474;13.710;2023-07-22T01:17:18;13.60;99.90
32749;DHT22;19119;52.474;13.710;2023-07-22T01:19:44;13.60;99.90
32749;DHT22;19119;52.474;13.710;2023-07-22T01:22:10;13.60;99.90
32749;DHT22;19119;52.474;13.710;2023-07-22T01:24:38;13.70;99.90
32749;DHT22;19119;52.474;13.710;2023-07-22T01:27:03;13.70;99.90
32749;DHT22;19119;52.474;13.710;2023-07-22T01:29:33;13.70;99.90
32749;DHT22;19119;52.474;13.710;2023-07-22T01:31:59;13.70;99.90
32749;DHT22;19119;52.474;13.710;2023-07-22T01:34:25;13.70;99.90
32749;DHT22;19119;52.474;13.710;2023-07-22T01:36:50;13.80;99.90
32749;DHT22;19119;52.474;13.710;2023-07-22T01:39:16;13.80;99.90
32749;DHT22;19119;52.474;13.710;2023-07-22T01:41:43;13.80;99.90
32749;DHT22;19119;52.474;13.710;2023-07-22T01:44:08;13.70;99.90
32749;DHT22;19119;52.474;13.710;2023-07-22T01:46:34;13.80;99.90
32749;DHT22;19119;52.474;13.710;2023-07-22T01:49:00;13.80;99.90
32749;DHT22;19119;52.474;13.710;2023-07-22T01:51:27;13.80;99.90
32749;DHT22;19119;52.474;13.710;2023-07-22T01:53:52;13.80;99.90
32749;DHT22;19119;52.474;13.710;2023-07-22T01:56:18;13.90;99.90
32749;DHT22;19119;52.474;13.710;2023-07-22T01:58:47;13.90;99.90
32749;DHT22;19119;52.474;13.710;2023-07-22T02:01:12;13.80;99.90
32749;DHT22;19119;52.474;13.710;2023-07-22T02:03:42;13.90;99.90
32749;DHT22;19119;52.474;13.710;2023-07-22T02:06:07;13.80;99.90
32749;DHT22;19119;52.474;13.710;2023-07-22T02:08:33;13.80;99.90
32749;DHT22;19119;52.474;13.710;2023-07-22T02:11:04;13.90;99.90
32749;DHT22;19119;52.474;13.710;2023-07-22T02:13:31;13.90;99.90
32749;DHT22;19119;52.474;13.710;2023-07-22T02:15:57;14.10;99.90
32749;DHT22;19119;52.474;13.710;2023-07-22T02:18:23;14.00;99.90
32749;DHT22;19119;52.474;13.710;2023-07-22T02:20:48;14.00;99.90
32749;DHT22;19119;52.474;13.710;2023-07-22T02:23:14;14.00;99.90
32749;DHT22;19119;52.474;13.710;2023-07-22T02:25:39;13.90;99.90
32749;DHT22;19119;52.474;13.710;2023-07-22T02:28:05;13.90;99.90
32749;DHT22;19119;52.474;13.710;2023-07-22T02:30:34;13.80;99.90
32749;DHT22;19119;52.474;13.710;2023-07-22T02:33:01;13.80;99.90
32749;DHT22;19119;52.474;13.710;2023-07-22T02:35:26;13.80;99.90
32749;DHT22;19119;52.474;13.710;2023-07-22T02:37:52;13.70;99.90
32749;DHT22;19119;52.474;13.710;2023-07-22T02:40:17;13.70;99.90
32749;DHT22;19119;52.474;13.710;2023-07-22T02:42:42;13.70;99.90
32749;DHT22;19119;52.474;13.710;2023-07-22T02:45:08;13.70;99.90
32749;DHT22;19119;52.474;13.710;2023-07-22T02:47:34;13.80;99.90
32749;DHT22;19119;52.474;13.710;2023-07-22T02:50:00;13.80;99.90
32749;DHT22;19119;52.474;13.710;2023-07-22T02:52:25;13.80;99.90
32749;DHT22;19119;52.474;13.710;2023-07-22T02:55:11;13.70;99.90
32749;DHT22;19119;52.474;13.710;2023-07-22T02:57:37;13.70;99.90
32749;DHT22;19119;52.474;13.710;2023-07-22T03:00:04;13.70;99.90
32749;DHT22;19119;52.474;13.710;2023-07-22T03:02:36;13.70;99.90
32749;DHT22;19119;52.474;13.710;2023-07-22T03:05:06;13.70;99.90
32749;DHT22;19119;52.474;13.710;2023-07-22T03:07:36;13.70;99.90
32749;DHT22;19119;52.474;13.710;2023-07-22T03:10:02;13.70;99.90
32749;DHT22;19119;52.474;13.710;2023-07-22T03:12:28;13.70;99.90
32749;DHT22;19119;52.474;13.710;2023-07-22T03:14:53;13.60;99.90
32749;DHT22;19119;52.474;13.710;2023-07-22T03:17:19;13.70;99.90
32749;DHT22;19119;52.474;13.710;2023-07-22T03:19:45;13.60;99.90
32749;DHT22;19119;52.474;13.710;2023-07-22T03:22:15;13.60;99.90
32749;DHT22;19119;52.474;13.710;2023-07-22T03:24:44;13.60;99.90
32749;DHT22;19119;52.474;13.710;2023-07-22T03:27:10;13.50;99.90
32749;DHT22;19119;52.474;13.710;2023-07-22T03:29:36;13.60;99.90
32749;DHT22;19119;52.474;13.710;2023-07-22T03:32:02;13.60;99.90
32749;DHT22;19119;52.474;13.710;2023-07-22T03:34:28;13.60;99.90
32749;DHT22;19119;52.474;13.710;2023-07-22T03:36:53;13.50;99.90
32749;DHT22;19119;52.474;13.710;2023-07-22T03:39:19;13.60;99.90
32749;DHT22;19119;52.474;13.710;2023-07-22T03:41:45;13.50;99.90
32749;DHT22;19119;52.474;13.710;2023-07-22T03:44:11;13.50;99.90
32749;DHT22;19119;52.474;13.710;2023-07-22T03:46:37;13.50;99.90
32749;DHT22;19119;52.474;13.710;2023-07-22T03:49:03;13.50;99.90
32749;DHT22;19119;52.474;13.710;2023-07-22T03:51:28;13.50;99.90
32749;DHT22;19119;52.474;13.710;2023-07-22T03:53:54;13.60;99.90
32749;DHT22;19119;52.474;13.710;2023-07-22T03:56:20;13.60;99.90
32749;DHT22;19119;52.474;13.710;2023-07-22T03:58:45;13.60;99.90
32749;DHT22;19119;52.474;13.710;2023-07-22T04:01:11;13.60;99.90
32749;DHT22;19119;52.474;13.710;2023-07-22T04:03:37;13.60;99.90
32749;DHT22;19119;52.474;13.710;2023-07-22T04:06:03;13.60;99.90
32749;DHT22;19119;52.474;13.710;2023-07-22T04:08:28;13.70;99.90
32749;DHT22;19119;52.474;13.710;2023-07-22T04:10:57;13.70;99.90
32749;DHT22;19119;52.474;13.710;2023-07-22T04:13:24;13.80;99.90
32749;DHT22;19119;52.474;13.710;2023-07-22T04:15:50;13.80;99.90
32749;DHT22;19119;52.474;13.710;2023-07-22T04:18:17;13.90;99.90
32749;DHT22;19119;52.474;13.710;2023-07-22T04:20:42;13.90;99.90
32749;DHT22;19119;52.474;13.710;2023-07-22T04:23:08;14.00;99.90
32749;DHT22;19119;52.474;13.710;2023-07-22T04:25:41;14.10;99.90
32749;DHT22;19119;52.474;13.710;2023-07-22T04:28:07;14.20;99.90
32749;DHT22;19119;52.474;13.710;2023-07-22T04:30:36;14.40;99.90
32749;DHT22;19119;52.474;13.710;2023-07-22T04:33:02;14.60;99.90
32749;DHT22;19119;52.474;13.710;2023-07-22T04:35:31;14.80;99.90
32749;DHT22;19119;52.474;13.710;2023-07-22T04:37:57;14.90;99.90
32749;DHT22;19119;52.474;13.710;2023-07-22T04:40:23;14.90;99.90
32749;DHT22;19119;52.474;13.710;2023-07-22T04:42:50;15.20;99.90
32749;DHT22;19119;52.474;13.710;2023-07-22T04:45:16;15.30;99.90
32749;DHT22;19119;52.474;13.710;2023-07-22T04:47:42;15.60;99.90
32749;DHT22;19119;52.474;13.710;2023-07-22T04:50:09;15.70;99.90
32749;DHT22;19119;52.474;13.710;2023-07-22T04:52:36;16.00;99.90
32749;DHT22;19119;52.474;13.710;2023-07-22T04:55:02;16.30;99.90
32749;DHT22;19119;52.474;13.710;2023-07-22T04:57:40;16.40;99.90
32749;DHT22;19119;52.474;13.710;2023-07-22T05:00:11;16.70;99.90
32749;DHT22;19119;52.474;13.710;2023-07-22T05:02:40;16.80;99.90
32749;DHT22;19119;52.474;13.710;2023-07-22T05:05:05;16.80;99.90
32749;DHT22;19119;52.474;13.710;2023-07-22T05:07:32;17.00;99.90
32749;DHT22;19119;52.474;13.710;2023-07-22T05:09:57;17.20;99.90
32749;DHT22;19119;52.474;13.710;2023-07-22T05:12:22;17.40;99.90
32749;DHT22;19119;52.474;13.710;2023-07-22T05:14:49;17.60;99.90
32749;DHT22;19119;52.474;13.710;2023-07-22T05:17:15;17.90;99.90
32749;DHT22;19119;52.474;13.710;2023-07-22T05:19:41;18.10;99.90
32749;DHT22;19119;52.474;13.710;2023-07-22T05:22:06;18.40;99.90
32749;DHT22;19119;52.474;13.710;2023-07-22T05:24:32;18.50;99.90
32749;DHT22;19119;52.474;13.710;2023-07-22T05:26:58;18.50;99.90
32749;DHT22;19119;52.474;13.710;2023-07-22T05:29:23;18.80;99.90
32749;DHT22;19119;52.474;13.710;2023-07-22T05:31:48;18.50;99.90
32749;DHT22;19119;52.474;13.710;2023-07-22T05:34:14;18.60;99.90
32749;DHT22;19119;52.474;13.710;2023-07-22T05:36:39;18.80;99.90
32749;DHT22;19119;52.474;13.710;2023-07-22T05:39:05;19.00;99.90
32749;DHT22;19119;52.474;13.710;2023-07-22T05:41:33;18.90;99.90
32749;DHT22;19119;52.474;13.710;2023-07-22T05:43:58;18.90;99.90
32749;DHT22;19119;52.474;13.710;2023-07-22T05:46:24;18.80;99.90
32749;DHT22;19119;52.474;13.710;2023-07-22T05:48:49;18.50;99.90
32749;DHT22;19119;52.474;13.710;2023-07-22T05:51:14;18.60;99.90
32749;DHT22;19119;52.474;13.710;2023-07-22T05:53:40;18.60;99.90
32749;DHT22;19119;52.474;13.710;2023-07-22T05:56:06;18.60;99.90
32749;DHT22;19119;52.474;13.710;2023-07-22T05:58:31;19.00;99.90
32749;DHT22;19119;52.474;13.710;2023-07-22T06:00:57;18.90;99.90
32749;DHT22;19119;52.474;13.710;2023-07-22T06:03:22;18.90;99.90
32749;DHT22;19119;52.474;13.710;2023-07-22T06:05:48;18.80;99.90
32749;DHT22;19119;52.474;13.710;2023-07-22T06:08:13;19.00;99.90
32749;DHT22;19119;52.474;13.710;2023-07-22T06:10:42;18.90;99.90
32749;DHT22;19119;52.474;13.710;2023-07-22T06:13:08;18.80;99.90
32749;DHT22;19119;52.474;13.710;2023-07-22T06:15:33;18.90;99.90
32749;DHT22;19119;52.474;13.710;2023-07-22T06:17:59;18.70;99.90
32749;DHT22;19119;52.474;13.710;2023-07-22T06:20:26;18.80;99.90
32749;DHT22;19119;52.474;13.710;2023-07-22T06:22:51;18.90;99.90
32749;DHT22;19119;52.474;13.710;2023-07-22T06:25:17;18.50;99.90
32749;DHT22;19119;52.474;13.710;2023-07-22T06:27:42;18.70;99.90
32749;DHT22;19119;52.474;13.710;2023-07-22T06:30:08;18.70;99.90
32749;DHT22;19119;52.474;13.710;2023-07-22T06:32:36;18.60;99.90
32749;DHT22;19119;52.474;13.710;2023-07-22T06:35:02;18.50;99.90
32749;DHT22;19119;52.474;13.710;2023-07-22T06:37:28;18.40;99.90
32749;DHT22;19119;52.474;13.710;2023-07-22T06:39:54;18.20;99.90
32749;DHT22;19119;52.474;13.710;2023-07-22T06:42:19;18.10;99.90
32749;DHT22;19119;52.474;13.710;2023-07-22T06:44:44;17.90;99.90
32749;DHT22;19119;52.474;13.710;2023-07-22T06:47:10;17.90;99.90
32749;DHT22;19119;52.474;13.710;2023-07-22T06:49:35;18.20;99.90
32749;DHT22;19119;52.474;13.710;2023-07-22T06:52:01;18.10;99.90
32749;DHT22;19119;52.474;13.710;2023-07-22T06:54:27;17.80;99.90
32749;DHT22;19119;52.474;13.710;2023-07-22T06:56:53;17.90;99.90
32749;DHT22;19119;52.474;13.710;2023-07-22T06:59:18;18.30;99.90
32749;DHT22;19119;52.474;13.710;2023-07-22T07:01:44;18.70;99.90
32749;DHT22;19119;52.474;13.710;2023-07-22T07:04:09;18.80;99.90
32749;DHT22;19119;52.474;13.710;2023-07-22T07:06:35;19.00;99.90
32749;DHT22;19119;52.474;13.710;2023-07-22T07:09:01;18.90;99.90
32749;DHT22;19119;52.474;13.710;2023-07-22T07:11:28;19.00;99.90
32749;DHT22;19119;52.474;13.710;2023-07-22T07:13:54;18.70;99.90
32749;DHT22;19119;52.474;13.710;2023-07-22T07:16:27;19.10;99.90
32749;DHT22;19119;52.474;13.710;2023-07-22T07:18:53;19.30;99.90
32749;DHT22;19119;52.474;13.710;2023-07-22T07:21:19;19.70;99.90
32749;DHT22;19119;52.474;13.710;2023-07-22T07:23:45;19.90;99.90
32749;DHT22;19119;52.474;13.710;2023-07-22T07:26:11;20.20;99.90
32749;DHT22;19119;52.474;13.710;2023-07-22T07:28:37;20.00;99.90
32749;DHT22;19119;52.474;13.710;2023-07-22T07:31:02;19.80;99.90
32749;DHT22;19119;52.474;13.710;2023-07-22T07:33:29;19.60;99.90
32749;DHT22;19119;52.474;13.710;2023-07-22T07:35:55;19.60;99.90
32749;DHT22;19119;52.474;13.710;2023-07-22T07:38:20;19.70;99.90
32749;DHT22;19119;52.474;13.710;2023-07-22T07:40:46;20.10;99.90
32749;DHT22;19119;52.474;13.710;2023-07-22T07:43:11;20.20;99.90
32749;DHT22;19119;52.474;13.710;2023-07-22T07:45:38;19.50;99.90
32749;DHT22;19119;52.474;13.710;2023-07-22T07:48:04;19.20;99.90
32749;DHT22;19119;52.474;13.710;2023-07-22T07:50:30;19.20;99.90
32749;DHT22;19119;52.474;13.710;2023-07-22T07:52:56;19.00;99.90
32749;DHT22;19119;52.474;13.710;2023-07-22T07:55:21;19.10;99.90
32749;DHT22;19119;52.474;13.710;2023-07-22T07:57:47;19.70;99.90
32749;DHT22;19119;52.474;13.710;2023-07-22T08:00:12;19.90;99.90
32749;DHT22;19119;52.474;13.710;2023-07-22T08:02:38;20.10;99.90
32749;DHT22;19119;52.474;13.710;2023-07-22T08:05:04;20.20;99.90
32749;DHT22;19119;52.474;13.710;2023-07-22T08:07:30;19.90;99.90
32749;DHT22;19119;52.474;13.710;2023-07-22T08:09:56;20.10;99.90
32749;DHT22;19119;52.474;13.710;2023-07-22T08:12:22;20.40;99.90
32749;DHT22;19119;52.474;13.710;2023-07-22T08:14:48;20.50;99.90
32749;DHT22;19119;52.474;13.710;2023-07-22T08:17:14;20.50;99.90
32749;DHT22;19119;52.474;13.710;2023-07-22T08:19:39;20.90;99.90
32749;DHT22;19119;52.474;13.710;2023-07-22T08:22:05;21.20;99.80
32749;DHT22;19119;52.474;13.710;2023-07-22T08:24:31;21.10;99.90
32749;DHT22;19119;52.474;13.710;2023-07-22T08:26:57;20.80;99.90
32749;DHT22;19119;52.474;13.710;2023-07-22T08:29:23;21.10;99.90
32749;DHT22;19119;52.474;13.710;2023-07-22T08:31:49;20.60;99.90
32749;DHT22;19119;52.474;13.710;2023-07-22T08:34:14;20.50;99.10
32749;DHT22;19119;52.474;13.710;2023-07-22T08:36:41;20.80;99.40
32749;DHT22;19119;52.474;13.710;2023-07-22T08:39:07;21.20;99.40
32749;DHT22;19119;52.474;13.710;2023-07-22T08:41:33;21.20;98.80
32749;DHT22;19119;52.474;13.710;2023-07-22T08:44:00;20.70;98.60
32749;DHT22;19119;52.474;13.710;2023-07-22T08:46:28;20.50;98.70
32749;DHT22;19119;52.474;13.710;2023-07-22T08:48:56;20.90;99.30
32749;DHT22;19119;52.474;13.710;2023-07-22T08:51:24;21.20;99.00
32749;DHT22;19119;52.474;13.710;2023-07-22T08:53:50;21.60;98.80
32749;DHT22;19119;52.474;13.710;2023-07-22T08:56:16;21.30;97.80
32749;DHT22;19119;52.474;13.710;2023-07-22T08:58:42;20.90;98.40
32749;DHT22;19119;52.474;13.710;2023-07-22T09:01:09;20.80;99.10
32749;DHT22;19119;52.474;13.710;2023-07-22T09:03:34;20.50;98.60
32749;DHT22;19119;52.474;13.710;2023-07-22T09:06:00;20.30;98.60
32749;DHT22;19119;52.474;13.710;2023-07-22T09:08:26;20.40;99.10
32749;DHT22;19119;52.474;13.710;2023-07-22T09:10:53;20.50;97.90
32749;DHT22;19119;52.474;13.710;2023-07-22T09:13:19;20.50;99.10
32749;DHT22;19119;52.474;13.710;2023-07-22T09:15:46;20.50;98.80
32749;DHT22;19119;52.474;13.710;2023-07-22T09:18:13;20.40;98.60
32749;DHT22;19119;52.474;13.710;2023-07-22T09:20:40;20.40;99.90
32749;DHT22;19119;52.474;13.710;2023-07-22T09:23:05;20.50;98.80
32749;DHT22;19119;52.474;13.710;2023-07-22T09:25:31;20.40;97.40
32749;DHT22;19119;52.474;13.710;2023-07-22T09:28:00;20.60;98.10
32749;DHT22;19119;52.474;13.710;2023-07-22T09:30:32;20.70;97.50
32749;DHT22;19119;52.474;13.710;2023-07-22T09:33:01;20.70;97.00
32749;DHT22;19119;52.474;13.710;2023-07-22T09:35:29;20.50;98.30
32749;DHT22;19119;52.474;13.710;2023-07-22T09:37:55;20.40;98.00
32749;DHT22;19119;52.474;13.710;2023-07-22T09:40:24;20.40;98.00
32749;DHT22;19119;52.474;13.710;2023-07-22T09:42:57;20.70;98.00
32749;DHT22;19119;52.474;13.710;2023-07-22T09:45:30;21.30;99.10
32749;DHT22;19119;52.474;13.710;2023-07-22T09:47:56;21.80;95.90
32749;DHT22;19119;52.474;13.710;2023-07-22T09:50:23;22.20;97.70
32749;DHT22;19119;52.474;13.710;2023-07-22T09:52:57;22.40;96.60
32749;DHT22;19119;52.474;13.710;2023-07-22T09:55:31;21.80;96.70
32749;DHT22;19119;52.474;13.710;2023-07-22T09:58:04;21.60;96.80
32749;DHT22;19119;52.474;13.710;2023-07-22T10:00:34;20.90;96.30
32749;DHT22;19119;52.474;13.710;2023-07-22T10:03:02;20.90;97.30
32749;DHT22;19119;52.474;13.710;2023-07-22T10:05:30;21.10;97.60
32749;DHT22;19119;52.474;13.710;2023-07-22T10:07:58;21.30;97.10
32749;DHT22;19119;52.474;13.710;2023-07-22T10:10:30;21.40;96.50
32749;DHT22;19119;52.474;13.710;2023-07-22T10:12:56;21.50;97.40
32749;DHT22;19119;52.474;13.710;2023-07-22T10:15:25;21.50;96.90
32749;DHT22;19119;52.474;13.710;2023-07-22T10:17:51;21.80;96.20
32749;DHT22;19119;52.474;13.710;2023-07-22T10:20:19;21.50;95.30
32749;DHT22;19119;52.474;13.710;2023-07-22T10:22:46;21.60;97.00
32749;DHT22;19119;52.474;13.710;2023-07-22T10:25:14;21.40;95.60
32749;DHT22;19119;52.474;13.710;2023-07-22T10:27:41;21.20;95.70
32749;DHT22;19119;52.474;13.710;2023-07-22T10:30:12;21.30;96.30
32749;DHT22;19119;52.474;13.710;2023-07-22T10:32:41;21.40;96.90
32749;DHT22;19119;52.474;13.710;2023-07-22T10:35:09;22.00;96.80
32749;DHT22;19119;52.474;13.710;2023-07-22T10:37:36;22.80;95.50
32749;DHT22;19119;52.474;13.710;2023-07-22T10:43:03;23.10;95.90
32749;DHT22;19119;52.474;13.710;2023-07-22T10:45:31;23.30;94.50
32749;DHT22;19119;52.474;13.710;2023-07-22T10:48:01;23.30;94.00
32749;DHT22;19119;52.474;13.710;2023-07-22T10:50:50;23.30;94.10
32749;DHT22;19119;52.474;13.710;2023-07-22T10:56:07;24.10;93.00
32749;DHT22;19119;52.474;13.710;2023-07-22T11:09:05;24.20;93.30
32749;DHT22;19119;52.474;13.710;2023-07-22T11:11:44;23.90;91.40
32749;DHT22;19119;52.474;13.710;2023-07-22T11:14:22;24.10;92.50
32749;DHT22;19119;52.474;13.710;2023-07-22T11:16:49;24.10;92.00
32749;DHT22;19119;52.474;13.710;2023-07-22T11:19:15;24.10;91.70
32749;DHT22;19119;52.474;13.710;2023-07-22T11:21:42;24.20;92.20
32749;DHT22;19119;52.474;13.710;2023-07-22T11:24:07;24.30;90.70
32749;DHT22;19119;52.474;13.710;2023-07-22T11:26:33;24.60;91.90
32749;DHT22;19119;52.474;13.710;2023-07-22T11:29:00;24.40;90.60
32749;DHT22;19119;52.474;13.710;2023-07-22T11:31:40;24.50;90.80
32749;DHT22;19119;52.474;13.710;2023-07-22T11:34:09;23.80;91.00
32749;DHT22;19119;52.474;13.710;2023-07-22T11:36:34;23.40;91.70
32749;DHT22;19119;52.474;13.710;2023-07-22T11:39:08;23.10;91.30
32749;DHT22;19119;52.474;13.710;2023-07-22T11:41:34;23.70;92.40
32749;DHT22;19119;52.474;13.710;2023-07-22T11:44:01;24.40;91.90
32749;DHT22;19119;52.474;13.710;2023-07-22T11:46:28;24.30;91.30
32749;DHT22;19119;52.474;13.710;2023-07-22T11:48:54;23.90;90.90
32749;DHT22;19119;52.474;13.710;2023-07-22T11:51:21;23.60;91.50
32749;DHT22;19119;52.474;13.710;2023-07-22T11:53:48;23.20;92.00
32749;DHT22;19119;52.474;13.710;2023-07-22T11:56:22;23.20;91.90
32749;DHT22;19119;52.474;13.710;2023-07-22T11:58:57;23.00;91.80
32749;DHT22;19119;52.474;13.710;2023-07-22T12:01:23;22.90;92.20
32749;DHT22;19119;52.474;13.710;2023-07-22T12:03:49;23.40;92.60
32749;DHT22;19119;52.474;13.710;2023-07-22T12:06:15;23.90;92.40
32749;DHT22;19119;52.474;13.710;2023-07-22T12:08:48;23.50;91.80
32749;DHT22;19119;52.474;13.710;2023-07-22T12:11:24;23.30;91.30
32749;DHT22;19119;52.474;13.710;2023-07-22T12:14:11;23.20;92.00
32749;DHT22;19119;52.474;13.710;2023-07-22T12:16:38;23.90;93.20
32749;DHT22;19119;52.474;13.710;2023-07-22T12:19:05;24.00;91.50
32749;DHT22;19119;52.474;13.710;2023-07-22T12:21:31;24.00;92.90
32749;DHT22;19119;52.474;13.710;2023-07-22T12:23:57;24.30;92.10
32749;DHT22;19119;52.474;13.710;2023-07-22T12:26:22;24.00;91.40
32749;DHT22;19119;52.474;13.710;2023-07-22T12:28:48;23.50;91.30
32749;DHT22;19119;52.474;13.710;2023-07-22T12:31:14;23.20;91.10
32749;DHT22;19119;52.474;13.710;2023-07-22T12:33:39;23.50;92.30
32749;DHT22;19119;52.474;13.710;2023-07-22T12:36:05;24.10;92.30
32749;DHT22;19119;52.474;13.710;2023-07-22T12:38:31;24.20;91.30
32749;DHT22;19119;52.474;13.710;2023-07-22T12:40:57;24.20;91.60
32749;DHT22;19119;52.474;13.710;2023-07-22T12:43:22;24.30;92.30
32749;DHT22;19119;52.474;13.710;2023-07-22T12:45:48;24.50;92.20
32749;DHT22;19119;52.474;13.710;2023-07-22T12:48:13;24.90;90.80
32749;DHT22;19119;52.474;13.710;2023-07-22T12:50:39;24.80;91.00
32749;DHT22;19119;52.474;13.710;2023-07-22T12:53:05;24.40;90.20
32749;DHT22;19119;52.474;13.710;2023-07-22T12:55:30;25.10;90.40
32749;DHT22;19119;52.474;13.710;2023-07-22T12:57:55;25.30;90.80
32749;DHT22;19119;52.474;13.710;2023-07-22T13:00:21;25.50;89.00
32749;DHT22;19119;52.474;13.710;2023-07-22T13:02:47;25.60;88.90
32749;DHT22;19119;52.474;13.710;2023-07-22T13:05:12;25.20;89.10
32749;DHT22;19119;52.474;13.710;2023-07-22T13:07:38;25.00;90.10
32749;DHT22;19119;52.474;13.710;2023-07-22T13:10:04;25.00;90.40
32749;DHT22;19119;52.474;13.710;2023-07-22T13:12:34;25.10;90.00
32749;DHT22;19119;52.474;13.710;2023-07-22T13:14:59;25.10;89.40
32749;DHT22;19119;52.474;13.710;2023-07-22T13:17:24;25.10;91.20
32749;DHT22;19119;52.474;13.710;2023-07-22T13:19:50;24.60;90.10
32749;DHT22;19119;52.474;13.710;2023-07-22T13:22:15;24.50;90.60
32749;DHT22;19119;52.474;13.710;2023-07-22T13:24:41;23.90;88.90
32749;DHT22;19119;52.474;13.710;2023-07-22T13:27:06;23.80;90.20
32749;DHT22;19119;52.474;13.710;2023-07-22T13:29:32;23.90;90.70
32749;DHT22;19119;52.474;13.710;2023-07-22T13:31:57;23.60;90.70
32749;DHT22;19119;52.474;13.710;2023-07-22T13:34:23;23.60;90.10
32749;DHT22;19119;52.474;13.710;2023-07-22T13:36:48;23.70;90.60
32749;DHT22;19119;52.474;13.710;2023-07-22T13:39:14;24.00;91.80
32749;DHT22;19119;52.474;13.710;2023-07-22T13:41:39;23.90;90.50
32749;DHT22;19119;52.474;13.710;2023-07-22T13:44:05;23.90;89.80
32749;DHT22;19119;52.474;13.710;2023-07-22T13:46:32;23.90;90.50
32749;DHT22;19119;52.474;13.710;2023-07-22T13:48:57;24.10;90.90
32749;DHT22;19119;52.474;13.710;2023-07-22T13:51:23;24.30;90.10
32749;DHT22;19119;52.474;13.710;2023-07-22T13:53:48;24.30;90.20
32749;DHT22;19119;52.474;13.710;2023-07-22T13:56:14;24.60;90.30
32749;DHT22;19119;52.474;13.710;2023-07-22T13:58:39;24.50;90.40
32749;DHT22;19119;52.474;13.710;2023-07-22T14:01:05;24.30;90.80
32749;DHT22;19119;52.474;13.710;2023-07-22T14:03:31;24.10;89.00
32749;DHT22;19119;52.474;13.710;2023-07-22T14:05:57;24.30;90.00
32749;DHT22;19119;52.474;13.710;2023-07-22T14:08:26;24.20;90.30
32749;DHT22;19119;52.474;13.710;2023-07-22T14:10:52;24.30;90.90
32749;DHT22;19119;52.474;13.710;2023-07-22T14:13:18;24.50;90.50
32749;DHT22;19119;52.474;13.710;2023-07-22T14:15:43;24.30;89.80
32749;DHT22;19119;52.474;13.710;2023-07-22T14:18:09;24.10;90.40
32749;DHT22;19119;52.474;13.710;2023-07-22T14:20:34;24.00;90.30
32749;DHT22;19119;52.474;13.710;2023-07-22T14:23:00;24.20;90.50
32749;DHT22;19119;52.474;13.710;2023-07-22T14:25:26;24.40;91.00
32749;DHT22;19119;52.474;13.710;2023-07-22T14:27:51;24.60;90.00
32749;DHT22;19119;52.474;13.710;2023-07-22T14:30:16;24.40;89.90
32749;DHT22;19119;52.474;13.710;2023-07-22T14:32:42;24.30;89.80
32749;DHT22;19119;52.474;13.710;2023-07-22T14:35:08;24.40;90.00
32749;DHT22;19119;52.474;13.710;2023-07-22T14:37:33;24.10;90.10
32749;DHT22;19119;52.474;13.710;2023-07-22T14:39:59;23.90;90.10
32749;DHT22;19119;52.474;13.710;2023-07-22T14:42:25;23.70;90.30
32749;DHT22;19119;52.474;13.710;2023-07-22T14:44:51;23.60;88.30
32749;DHT22;19119;52.474;13.710;2023-07-22T14:47:16;23.70;90.40
32749;DHT22;19119;52.474;13.710;2023-07-22T14:49:41;23.80;90.80
32749;DHT22;19119;52.474;13.710;2023-07-22T14:52:07;23.80;90.40
32749;DHT22;19119;52.474;13.710;2023-07-22T14:54:33;24.10;91.20
32749;DHT22;19119;52.474;13.710;2023-07-22T14:56:59;23.90;90.70
32749;DHT22;19119;52.474;13.710;2023-07-22T14:59:24;24.20;90.50
32749;DHT22;19119;52.474;13.710;2023-07-22T15:01:51;24.30;90.60
32749;DHT22;19119;52.474;13.710;2023-07-22T15:04:17;24.50;88.90
32749;DHT22;19119;52.474;13.710;2023-07-22T15:06:42;24.40;87.50
32749;DHT22;19119;52.474;13.710;2023-07-22T15:09:07;24.20;88.80
32749;DHT22;19119;52.474;13.710;2023-07-22T15:11:34;24.00;90.50
32749;DHT22;19119;52.474;13.710;2023-07-22T15:14:01;23.80;89.90
32749;DHT22;19119;52.474;13.710;2023-07-22T15:16:27;23.90;89.90
32749;DHT22;19119;52.474;13.710;2023-07-22T15:18:53;23.90;90.90
32749;DHT22;19119;52.474;13.710;2023-07-22T15:21:18;23.80;90.20
32749;DHT22;19119;52.474;13.710;2023-07-22T15:23:43;23.70;90.30
32749;DHT22;19119;52.474;13.710;2023-07-22T15:26:09;23.50;90.90
32749;DHT22;19119;52.474;13.710;2023-07-22T15:28:34;23.40;90.10